Private Wetterstation Sandau
Wetterdaten: Dienstag, 03.01.2012
Datum Zeit Temp. A. Feuchte A. Luftdruck Regen Wind Richtung Richtung Taupunkt Windchill
05.12.2011 00:00 5,8 C 84 % 991,4 hPa 0,0 l/m 17,6 km/h (3 Bft) S 180 3,3 C 2,4 C
05.12.2011 00:05 5,9 C 84 % 991,1 hPa 0,0 l/m 5,4 km/h (1 Bft) W-SW 247 3,4 C 5,0 C
05.12.2011 00:10 5,9 C 84 % 991,4 hPa 0,0 l/m 9,0 km/h (2 Bft) S-SW 202 3,4 C 4,0 C
05.12.2011 00:15 6,0 C 84 % 991,5 hPa 0,0 l/m 9,0 km/h (2 Bft) S 180 3,5 C 4,1 C
05.12.2011 00:20 6,1 C 84 % 991,4 hPa 0,0 l/m 9,0 km/h (2 Bft) SW 225 3,6 C 4,2 C
05.12.2011 00:25 6,1 C 83 % 991,1 hPa 0,0 l/m 15,5 km/h (3 Bft) W-SW 247 3,4 C 3,0 C
05.12.2011 00:30 6,1 C 83 % 991,1 hPa 0,0 l/m 20,2 km/h (4 Bft) S-SW 202 3,4 C 2,4 C
05.12.2011 00:35 6,1 C 83 % 991,0 hPa 0,0 l/m 9,7 km/h (2 Bft) S-SW 202 3,4 C 4,0 C
05.12.2011 00:40 6,1 C 83 % 991,0 hPa 0,0 l/m 16,6 km/h (3 Bft) SW 225 3,4 C 2,9 C
05.12.2011 00:45 6,2 C 83 % 990,7 hPa 0,0 l/m 6,8 km/h (2 Bft) W-SW 247 3,5 C 4,9 C
05.12.2011 00:50 6,2 C 83 % 990,6 hPa 0,0 l/m 12,6 km/h (3 Bft) SW 225 3,5 C 3,6 C
05.12.2011 00:55 6,2 C 82 % 990,7 hPa 0,0 l/m 13,0 km/h (3 Bft) SW 225 3,4 C 3,5 C
05.12.2011 01:00 6,1 C 82 % 990,6 hPa 0,0 l/m 11,9 km/h (2 Bft) S 180 3,3 C 3,6 C
05.12.2011 01:05 6,2 C 82 % 990,3 hPa 0,0 l/m 21,2 km/h (4 Bft) S-SW 202 3,4 C 2,4 C
05.12.2011 01:10 6,2 C 83 % 990,6 hPa 0,0 l/m 8,3 km/h (2 Bft) S 180 3,5 C 4,5 C
05.12.2011 01:15 6,1 C 83 % 990,4 hPa 0,0 l/m 4,0 km/h (1 Bft) W 270 3,4 C 6,1 C
05.12.2011 01:20 6,1 C 83 % 990,1 hPa 0,0 l/m 14,4 km/h (3 Bft) SO 135 3,4 C 3,2 C
05.12.2011 01:25 6,1 C 84 % 990,3 hPa 0,0 l/m 7,9 km/h (2 Bft) W-SW 247 3,6 C 4,5 C
05.12.2011 01:30 6,1 C 84 % 990,5 hPa 0,0 l/m 11,5 km/h (2 Bft) W 270 3,6 C 3,7 C
05.12.2011 01:35 6,0 C 84 % 990,4 hPa 0,0 l/m 13,7 km/h (3 Bft) S-SW 202 3,5 C 3,2 C
05.12.2011 01:40 5,9 C 84 % 990,4 hPa 0,0 l/m 17,6 km/h (3 Bft) W 270 3,4 C 2,5 C
05.12.2011 01:45 5,9 C 84 % 990,2 hPa 0,0 l/m 9,0 km/h (2 Bft) W-SW 247 3,4 C 4,0 C
05.12.2011 01:50 5,9 C 84 % 990,2 hPa 0,0 l/m 12,6 km/h (3 Bft) W-SW 247 3,4 C 3,2 C
05.12.2011 01:55 5,9 C 85 % 990,1 hPa 0,0 l/m 7,9 km/h (2 Bft) W-SW 247 3,6 C 4,2 C
05.12.2011 02:00 5,9 C 85 % 990,0 hPa 0,0 l/m 8,3 km/h (2 Bft) S-SW 202 3,6 C 4,1 C
05.12.2011 02:05 5,9 C 85 % 990,0 hPa 0,0 l/m 8,3 km/h (2 Bft) S-SW 202 3,6 C 4,1 C
05.12.2011 02:10 5,8 C 85 % 989,8 hPa 0,0 l/m 5,0 km/h (1 Bft) W-SW 247 3,5 C 5,0 C
05.12.2011 02:15 5,8 C 85 % 989,8 hPa 0,0 l/m 5,0 km/h (1 Bft) W-SW 247 3,5 C 5,0 C
05.12.2011 02:20 5,6 C 85 % 990,0 hPa 0,0 l/m 11,2 km/h (2 Bft) SW 225 3,3 C 3,1 C
05.12.2011 02:25 5,6 C 85 % 990,0 hPa 0,0 l/m 7,9 km/h (2 Bft) W 270 3,3 C 3,9 C
05.12.2011 02:30 5,6 C 85 % 990,0 hPa 0,0 l/m 9,7 km/h (2 Bft) W-SW 247 3,3 C 3,4 C
05.12.2011 02:35 5,6 C 85 % 990,1 hPa 0,0 l/m 5,4 km/h (1 Bft) W-SW 247 3,3 C 4,6 C
05.12.2011 02:40 5,5 C 85 % 989,7 hPa 0,0 l/m 14,4 km/h (3 Bft) W-SW 247 3,2 C 2,5 C
05.12.2011 02:45 5,5 C 85 % 989,9 hPa 0,0 l/m 6,8 km/h (2 Bft) W 270 3,2 C 4,1 C
05.12.2011 02:50 5,5 C 85 % 989,8 hPa 0,0 l/m 7,2 km/h (2 Bft) W 270 3,2 C 3,9 C
05.12.2011 02:55 5,4 C 85 % 989,5 hPa 0,0 l/m 9,7 km/h (2 Bft) W-SW 247 3,1 C 3,2 C
05.12.2011 03:00 5,4 C 85 % 989,5 hPa 0,0 l/m 7,6 km/h (2 Bft) W 270 3,1 C 3,7 C
05.12.2011 03:05 5,4 C 85 % 989,8 hPa 0,0 l/m 9,4 km/h (2 Bft) W-SW 247 3,1 C 3,3 C
05.12.2011 03:10 5,3 C 85 % 989,9 hPa 0,0 l/m 6,1 km/h (2 Bft) W-NW 292 3,0 C 4,0 C
05.12.2011 03:15 5,3 C 85 % 989,9 hPa 0,0 l/m 9,4 km/h (2 Bft) W-SW 247 3,0 C 3,1 C
05.12.2011 03:20 5,3 C 86 % 990,0 hPa 0,0 l/m 20,5 km/h (4 Bft) W-SW 247 3,2 C 1,4 C
05.12.2011 03:25 5,3 C 86 % 990,1 hPa 0,0 l/m 11,9 km/h (2 Bft) W-SW 247 3,2 C 2,6 C
05.12.2011 03:30 5,3 C 86 % 990,1 hPa 0,0 l/m 16,9 km/h (3 Bft) SW 225 3,2 C 1,8 C
05.12.2011 03:35 5,2 C 86 % 990,1 hPa 0,0 l/m 6,1 km/h (2 Bft) W 270 3,1 C 3,9 C
05.12.2011 03:40 5,2 C 86 % 990,1 hPa 0,0 l/m 11,5 km/h (2 Bft) W-SW 247 3,1 C 2,6 C
05.12.2011 03:45 5,2 C 86 % 990,2 hPa 0,0 l/m 9,4 km/h (2 Bft) W-SW 247 3,1 C 3,0 C
05.12.2011 03:50 5,2 C 86 % 989,9 hPa 0,0 l/m 5,4 km/h (1 Bft) W-NW 292 3,1 C 4,2 C
05.12.2011 03:55 5,2 C 86 % 990,0 hPa 0,0 l/m 5,4 km/h (1 Bft) SW 225 3,1 C 4,2 C
05.12.2011 04:00 5,1 C 86 % 990,0 hPa 0,0 l/m 9,4 km/h (2 Bft) W 270 3,0 C 2,9 C
05.12.2011 04:05 5,1 C 86 % 990,2 hPa 0,0 l/m 6,1 km/h (2 Bft) W-SW 247 3,0 C 3,8 C
05.12.2011 04:10 5,1 C 86 % 990,0 hPa 0,0 l/m 5,0 km/h (1 Bft) W 270 3,0 C 4,2 C
05.12.2011 04:15 5,1 C 86 % 990,2 hPa 0,0 l/m 10,1 km/h (2 Bft) W 270 3,0 C 2,8 C
05.12.2011 04:20 5,1 C 86 % 990,3 hPa 0,0 l/m 3,2 km/h (1 Bft) S-SW 202 3,0 C 5,1 C
05.12.2011 04:25 5,1 C 86 % 990,3 hPa 0,0 l/m 10,8 km/h (2 Bft) W 270 3,0 C 2,6 C
05.12.2011 04:30 5,1 C 86 % 990,3 hPa 0,0 l/m 4,0 km/h (1 Bft) W-SW 247 3,0 C 5,1 C
05.12.2011 04:35 5,1 C 86 % 990,4 hPa 0,0 l/m 4,0 km/h (1 Bft) W 270 3,0 C 5,1 C
05.12.2011 04:40 5,1 C 86 % 990,5 hPa 0,0 l/m 0,0 km/h (0 Bft) W 270 3,0 C 5,1 C
05.12.2011 04:45 5,0 C 86 % 990,5 hPa 0,0 l/m 6,1 km/h (2 Bft) W 270 2,9 C 3,7 C
05.12.2011 04:50 5,1 C 86 % 990,4 hPa 0,0 l/m 7,2 km/h (2 Bft) W-NW 292 3,0 C 3,5 C
05.12.2011 04:55 5,0 C 86 % 990,5 hPa 0,0 l/m 6,1 km/h (2 Bft) W 270 2,9 C 3,7 C
05.12.2011 05:00 5,0 C 86 % 990,6 hPa 0,0 l/m 14,4 km/h (3 Bft) W-SW 247 2,9 C 1,8 C
05.12.2011 05:05 4,9 C 86 % 990,9 hPa 0,0 l/m 5,8 km/h (2 Bft) W 270 2,8 C 3,7 C
05.12.2011 05:10 4,9 C 86 % 990,8 hPa 0,0 l/m 2,2 km/h (1 Bft) W 270 2,8 C 4,9 C
05.12.2011 05:15 4,9 C 86 % 990,8 hPa 0,0 l/m 4,7 km/h (1 Bft) W 270 2,8 C 4,1 C
05.12.2011 05:20 4,9 C 86 % 991,0 hPa 0,0 l/m 6,5 km/h (2 Bft) W-SW 247 2,8 C 3,4 C
05.12.2011 05:25 4,9 C 86 % 991,0 hPa 0,0 l/m 7,6 km/h (2 Bft) W-NW 292 2,8 C 3,1 C
05.12.2011 05:30 4,9 C 86 % 991,2 hPa 0,0 l/m 6,1 km/h (2 Bft) W 270 2,8 C 3,6 C
05.12.2011 05:35 4,9 C 86 % 991,3 hPa 0,0 l/m 4,0 km/h (1 Bft) W-SW 247 2,8 C 4,9 C
05.12.2011 05:40 4,9 C 86 % 991,3 hPa 0,0 l/m 9,0 km/h (2 Bft) W 270 2,8 C 2,8 C
05.12.2011 05:45 4,9 C 86 % 991,5 hPa 0,0 l/m 9,4 km/h (2 Bft) W 270 2,8 C 2,7 C
05.12.2011 05:50 4,9 C 86 % 991,7 hPa 0,0 l/m 6,1 km/h (2 Bft) W-NW 292 2,8 C 3,6 C
05.12.2011 05:55 4,9 C 86 % 991,8 hPa 0,0 l/m 6,8 km/h (2 Bft) W-SW 247 2,8 C 3,4 C
05.12.2011 06:00 4,9 C 86 % 991,8 hPa 0,0 l/m 17,3 km/h (3 Bft) W 270 2,8 C 1,3 C
05.12.2011 06:05 4,9 C 87 % 991,9 hPa 0,0 l/m 11,9 km/h (2 Bft) W 270 2,9 C 2,2 C
05.12.2011 06:10 4,9 C 87 % 992,0 hPa 0,0 l/m 18,7 km/h (3 Bft) W 270 2,9 C 1,1 C
05.12.2011 06:15 4,8 C 87 % 992,0 hPa 0,0 l/m 9,4 km/h (2 Bft) W-SW 247 2,8 C 2,6 C
05.12.2011 06:20 4,8 C 87 % 992,0 hPa 0,0 l/m 6,1 km/h (2 Bft) W-SW 247 2,8 C 3,5 C
05.12.2011 06:25 4,8 C 87 % 992,2 hPa 0,0 l/m 8,3 km/h (2 Bft) W 270 2,8 C 2,8 C
05.12.2011 06:30 4,8 C 87 % 992,3 hPa 0,0 l/m 13,7 km/h (3 Bft) W-SW 247 2,8 C 1,7 C
05.12.2011 06:35 4,8 C 87 % 992,4 hPa 0,0 l/m 13,7 km/h (3 Bft) W-SW 247 2,8 C 1,7 C
05.12.2011 06:40 4,8 C 87 % 992,6 hPa 0,0 l/m 8,3 km/h (2 Bft) W-SW 247 2,8 C 2,8 C
05.12.2011 06:45 4,8 C 87 % 992,6 hPa 0,0 l/m 9,4 km/h (2 Bft) W-SW 247 2,8 C 2,6 C
05.12.2011 06:50 4,8 C 87 % 992,7 hPa 0,0 l/m 7,2 km/h (2 Bft) W 270 2,8 C 3,1 C
05.12.2011 06:55 4,7 C 87 % 992,8 hPa 0,0 l/m 5,8 km/h (2 Bft) W 270 2,7 C 3,4 C
05.12.2011 07:00 4,7 C 87 % 992,9 hPa 0,0 l/m 5,0 km/h (1 Bft) W 270 2,7 C 3,7 C
05.12.2011 07:05 4,7 C 87 % 993,2 hPa 0,0 l/m 4,7 km/h (1 Bft) W 270 2,7 C 3,9 C
05.12.2011 07:10 4,7 C 87 % 993,2 hPa 0,0 l/m 6,5 km/h (2 Bft) W 270 2,7 C 3,2 C
05.12.2011 07:15 4,7 C 87 % 993,2 hPa 0,0 l/m 14,8 km/h (3 Bft) W-NW 292 2,7 C 1,4 C
05.12.2011 07:20 4,7 C 87 % 993,3 hPa 0,0 l/m 9,0 km/h (2 Bft) W-NW 292 2,7 C 2,5 C
05.12.2011 07:25 4,7 C 86 % 993,5 hPa 0,0 l/m 5,8 km/h (2 Bft) W-SW 247 2,6 C 3,4 C
05.12.2011 07:30 4,7 C 86 % 993,5 hPa 0,0 l/m 14,8 km/h (3 Bft) W-NW 292 2,6 C 1,4 C
05.12.2011 07:35 4,6 C 86 % 993,8 hPa 0,0 l/m 18,0 km/h (3 Bft) W 270 2,5 C 0,8 C
05.12.2011 07:40 4,6 C 85 % 993,8 hPa 0,0 l/m 13,7 km/h (3 Bft) W-SW 247 2,3 C 1,5 C
05.12.2011 07:45 4,5 C 84 % 993,9 hPa 0,0 l/m 18,4 km/h (3 Bft) NW 315 2,0 C 0,6 C
05.12.2011 07:50 4,4 C 84 % 993,8 hPa 0,0 l/m 5,8 km/h (2 Bft) W-NW 292 1,9 C 3,1 C
05.12.2011 07:55 4,3 C 84 % 994,2 hPa 0,0 l/m 13,3 km/h (3 Bft) W 270 1,8 C 1,2 C
05.12.2011 08:00 4,3 C 84 % 994,4 hPa 0,0 l/m 11,9 km/h (2 Bft) W 270 1,8 C 1,4 C
05.12.2011 08:05 4,3 C 84 % 994,5 hPa 0,0 l/m 12,2 km/h (2 Bft) W-SW 247 1,8 C 1,4 C
05.12.2011 08:10 4,2 C 84 % 994,6 hPa 0,0 l/m 8,3 km/h (2 Bft) W 270 1,7 C 2,1 C
05.12.2011 08:15 4,1 C 84 % 994,4 hPa 0,0 l/m 19,4 km/h (3 Bft) W-SW 247 1,6 C 0,0 C
05.12.2011 08:20 4,1 C 84 % 994,8 hPa 0,0 l/m 10,1 km/h (2 Bft) SW 225 1,6 C 1,6 C
05.12.2011 08:25 4,1 C 85 % 994,7 hPa 0,0 l/m 13,3 km/h (3 Bft) W-NW 292 1,8 C 0,9 C
05.12.2011 08:30 3,9 C 85 % 995,0 hPa 0,0 l/m 12,6 km/h (3 Bft) W 270 1,6 C 0,8 C
05.12.2011 08:35 3,9 C 85 % 995,2 hPa 0,0 l/m 7,6 km/h (2 Bft) W-NW 292 1,6 C 2,0 C
05.12.2011 08:40 3,8 C 85 % 995,3 hPa 0,0 l/m 13,0 km/h (3 Bft) W-NW 292 1,5 C 0,6 C
05.12.2011 08:45 3,8 C 85 % 995,5 hPa 0,0 l/m 12,6 km/h (3 Bft) S-SW 202 1,5 C 0,7 C
05.12.2011 08:50 3,8 C 85 % 995,4 hPa 0,0 l/m 8,3 km/h (2 Bft) W 270 1,5 C 1,6 C
05.12.2011 08:55 3,8 C 85 % 995,4 hPa 0,0 l/m 13,0 km/h (3 Bft) W-SW 247 1,5 C 0,6 C
05.12.2011 09:00 3,8 C 85 % 995,6 hPa 0,0 l/m 18,0 km/h (3 Bft) W-NW 292 1,5 C -0,2 C
05.12.2011 09:05 3,8 C 85 % 995,5 hPa 0,0 l/m 11,2 km/h (2 Bft) W 270 1,5 C 1,0 C
05.12.2011 09:10 3,8 C 85 % 995,7 hPa 0,0 l/m 10,8 km/h (2 Bft) W-SW 247 1,5 C 1,0 C
05.12.2011 09:15 3,8 C 85 % 995,8 hPa 0,0 l/m 15,1 km/h (3 Bft) W 270 1,5 C 0,3 C
05.12.2011 09:20 3,8 C 85 % 995,9 hPa 0,0 l/m 10,1 km/h (2 Bft) W 270 1,5 C 1,2 C
05.12.2011 09:25 3,8 C 84 % 995,8 hPa 0,0 l/m 8,3 km/h (2 Bft) W-NW 292 1,4 C 1,6 C
05.12.2011 09:30 3,8 C 84 % 996,2 hPa 0,0 l/m 4,7 km/h (1 Bft) W 270 1,4 C 2,8 C
05.12.2011 09:35 3,8 C 84 % 996,2 hPa 0,0 l/m 18,0 km/h (3 Bft) NW 315 1,4 C -0,2 C
05.12.2011 09:40 3,9 C 84 % 996,3 hPa 0,0 l/m 9,4 km/h (2 Bft) NW 315 1,4 C 1,5 C
05.12.2011 09:45 3,9 C 84 % 996,3 hPa 0,0 l/m 13,3 km/h (3 Bft) W-SW 247 1,4 C 0,7 C
05.12.2011 09:50 3,9 C 84 % 996,4 hPa 0,0 l/m 7,6 km/h (2 Bft) W 270 1,4 C 2,0 C
05.12.2011 09:55 3,9 C 84 % 996,6 hPa 0,0 l/m 6,8 km/h (2 Bft) W 270 1,4 C 2,2 C
05.12.2011 10:00 3,9 C 84 % 996,8 hPa 0,0 l/m 9,7 km/h (2 Bft) W 270 1,4 C 1,4 C
05.12.2011 10:05 3,9 C 84 % 996,8 hPa 0,0 l/m 10,1 km/h (2 Bft) W-SW 247 1,4 C 1,3 C
05.12.2011 10:10 3,9 C 84 % 996,8 hPa 0,0 l/m 11,5 km/h (2 Bft) W 270 1,4 C 1,0 C
05.12.2011 10:15 4,1 C 84 % 996,9 hPa 0,0 l/m 13,0 km/h (3 Bft) NW 315 1,6 C 1,0 C
05.12.2011 10:20 4,1 C 83 % 997,2 hPa 0,0 l/m 4,3 km/h (1 Bft) NW 315 1,5 C 4,1 C
05.12.2011 10:25 4,1 C 83 % 997,1 hPa 0,0 l/m 16,6 km/h (3 Bft) W 270 1,5 C 0,4 C
05.12.2011 10:30 4,1 C 83 % 997,3 hPa 0,0 l/m 12,2 km/h (2 Bft) W 270 1,5 C 1,1 C
05.12.2011 10:35 4,2 C 83 % 997,5 hPa 0,0 l/m 13,3 km/h (3 Bft) W-SW 247 1,6 C 1,0 C
05.12.2011 10:40 4,3 C 83 % 997,7 hPa 0,0 l/m 20,2 km/h (4 Bft) NW 315 1,7 C 0,2 C
05.12.2011 10:45 4,4 C 83 % 997,5 hPa 0,0 l/m 23,0 km/h (4 Bft) SW 225 1,8 C -0,0 C
05.12.2011 10:50 4,4 C 83 % 997,7 hPa 0,0 l/m 16,6 km/h (3 Bft) W-SW 247 1,8 C 0,8 C
05.12.2011 10:55 4,5 C 82 % 997,8 hPa 0,0 l/m 9,7 km/h (2 Bft) W 270 1,7 C 2,1 C
05.12.2011 11:00 4,6 C 82 % 997,9 hPa 0,0 l/m 19,4 km/h (3 Bft) W-SW 247 1,8 C 0,6 C
05.12.2011 11:05 4,7 C 82 % 998,1 hPa 0,0 l/m 26,6 km/h (4 Bft) W-SW 247 1,9 C -0,0 C
05.12.2011 11:10 4,8 C 81 % 998,3 hPa 0,0 l/m 17,6 km/h (3 Bft) NW 315 1,8 C 1,1 C
05.12.2011 11:15 4,8 C 81 % 998,2 hPa 0,0 l/m 17,6 km/h (3 Bft) W 270 1,8 C 1,1 C
05.12.2011 11:20 4,8 C 80 % 998,2 hPa 0,0 l/m 10,4 km/h (2 Bft) W-NW 292 1,6 C 2,3 C
05.12.2011 11:25 4,7 C 80 % 998,3 hPa 0,0 l/m 16,2 km/h (3 Bft) W 270 1,6 C 1,2 C
05.12.2011 11:30 4,7 C 80 % 998,5 hPa 0,0 l/m 25,6 km/h (4 Bft) W 270 1,6 C 0,1 C
05.12.2011 11:35 4,8 C 80 % 998,4 hPa 0,0 l/m 16,9 km/h (3 Bft) W-SW 247 1,6 C 1,2 C
05.12.2011 11:40 4,8 C 80 % 998,5 hPa 0,0 l/m 14,8 km/h (3 Bft) W-NW 292 1,6 C 1,5 C
05.12.2011 11:45 4,9 C 79 % 998,4 hPa 0,0 l/m 7,2 km/h (2 Bft) W-NW 292 1,6 C 3,2 C
05.12.2011 11:50 4,9 C 79 % 998,6 hPa 0,0 l/m 14,8 km/h (3 Bft) W 270 1,6 C 1,7 C
05.12.2011 11:55 4,9 C 79 % 998,5 hPa 0,0 l/m 21,6 km/h (4 Bft) W-NW 292 1,6 C 0,8 C
05.12.2011 12:00 4,9 C 79 % 998,5 hPa 0,0 l/m 17,3 km/h (3 Bft) W-SW 247 1,6 C 1,3 C
05.12.2011 12:05 4,9 C 79 % 998,6 hPa 0,0 l/m 10,8 km/h (2 Bft) W 270 1,6 C 2,4 C
05.12.2011 12:10 4,9 C 80 % 998,8 hPa 0,0 l/m 23,0 km/h (4 Bft) W 270 1,7 C 0,6 C
05.12.2011 12:15 4,9 C 79 % 998,8 hPa 0,0 l/m 13,7 km/h (3 Bft) W-SW 247 1,6 C 1,8 C
05.12.2011 12:20 4,9 C 79 % 998,9 hPa 0,0 l/m 6,5 km/h (2 Bft) W-SW 247 1,6 C 3,4 C
05.12.2011 12:25 5,1 C 79 % 999,0 hPa 0,0 l/m 11,9 km/h (2 Bft) W 270 1,8 C 2,4 C
05.12.2011 12:30 5,0 C 79 % 999,1 hPa 0,0 l/m 15,5 km/h (3 Bft) W-NW 292 1,7 C 1,7 C
05.12.2011 12:35 4,9 C 78 % 999,1 hPa 0,0 l/m 10,1 km/h (2 Bft) W 270 1,4 C 2,5 C
05.12.2011 12:40 5,0 C 79 % 999,1 hPa 0,0 l/m 14,0 km/h (3 Bft) W 270 1,7 C 1,9 C
05.12.2011 12:45 5,0 C 79 % 999,2 hPa 0,0 l/m 13,3 km/h (3 Bft) W-SW 247 1,7 C 2,0 C
05.12.2011 12:50 4,9 C 79 % 999,2 hPa 0,0 l/m 18,7 km/h (3 Bft) W-SW 247 1,6 C 1,1 C
05.12.2011 12:55 4,9 C 78 % 999,2 hPa 0,0 l/m 20,5 km/h (4 Bft) W-NW 292 1,4 C 0,9 C
05.12.2011 13:00 4,9 C 78 % 999,1 hPa 0,0 l/m 12,6 km/h (3 Bft) W-NW 292 1,4 C 2,0 C
05.12.2011 13:05 4,9 C 78 % 999,3 hPa 0,0 l/m 27,4 km/h (4 Bft) W-SW 247 1,4 C 0,2 C
05.12.2011 13:10 4,9 C 78 % 999,4 hPa 0,0 l/m 17,6 km/h (3 Bft) W-NW 292 1,4 C 1,2 C
05.12.2011 13:15 4,9 C 78 % 999,4 hPa 0,0 l/m 13,3 km/h (3 Bft) W-SW 247 1,4 C 1,9 C
05.12.2011 13:20 4,9 C 78 % 999,4 hPa 0,0 l/m 11,2 km/h (2 Bft) W-NW 292 1,4 C 2,3 C
05.12.2011 13:25 4,9 C 78 % 999,5 hPa 0,0 l/m 23,0 km/h (4 Bft) W 270 1,4 C 0,6 C
05.12.2011 13:30 4,9 C 78 % 999,6 hPa 0,0 l/m 18,0 km/h (3 Bft) W-NW 292 1,4 C 1,2 C
05.12.2011 13:35 4,9 C 78 % 999,6 hPa 0,0 l/m 12,6 km/h (3 Bft) W-NW 292 1,4 C 2,0 C
05.12.2011 13:40 4,8 C 78 % 999,5 hPa 0,0 l/m 21,2 km/h (4 Bft) W 270 1,3 C 0,7 C
05.12.2011 13:45 4,8 C 79 % 999,4 hPa 0,0 l/m 11,2 km/h (2 Bft) W 270 1,5 C 2,2 C
05.12.2011 13:50 4,7 C 79 % 999,4 hPa 0,0 l/m 11,5 km/h (2 Bft) W-NW 292 1,4 C 2,0 C
05.12.2011 13:55 4,6 C 79 % 999,5 hPa 0,0 l/m 12,6 km/h (3 Bft) W-SW 247 1,3 C 1,7 C
05.12.2011 14:00 4,6 C 79 % 999,5 hPa 0,0 l/m 21,6 km/h (4 Bft) W-SW 247 1,3 C 0,4 C
05.12.2011 14:05 4,4 C 80 % 999,5 hPa 0,0 l/m 22,7 km/h (4 Bft) W-SW 247 1,3 C -0,0 C
05.12.2011 14:10 4,3 C 80 % 999,5 hPa 0,0 l/m 15,8 km/h (3 Bft) W-NW 292 1,2 C 0,8 C
05.12.2011 14:15 4,3 C 80 % 999,7 hPa 0,0 l/m 19,8 km/h (3 Bft) W-SW 247 1,2 C 0,2 C
05.12.2011 14:20 4,2 C 81 % 999,7 hPa 0,0 l/m 7,2 km/h (2 Bft) W 270 1,2 C 2,4 C
05.12.2011 14:25 4,2 C 81 % 999,7 hPa 0,0 l/m 9,0 km/h (2 Bft) W-SW 247 1,2 C 1,9 C
05.12.2011 14:30 4,1 C 81 % 999,7 hPa 0,0 l/m 17,3 km/h (3 Bft) W-SW 247 1,1 C 0,3 C
05.12.2011 14:35 4,1 C 81 % 999,8 hPa 0,0 l/m 19,8 km/h (3 Bft) W 270 1,1 C -0,0 C
05.12.2011 14:40 4,1 C 82 % 999,8 hPa 0,0 l/m 23,0 km/h (4 Bft) W-SW 247 1,3 C -0,4 C
05.12.2011 14:45 4,1 C 82 % 999,8 hPa 0,0 l/m 12,2 km/h (2 Bft) W 270 1,3 C 1,1 C
05.12.2011 14:50 4,1 C 82 % 999,6 hPa 0,0 l/m 11,5 km/h (2 Bft) W-SW 247 1,3 C 1,3 C
05.12.2011 14:55 4,1 C 82 % 999,7 hPa 0,0 l/m 14,4 km/h (3 Bft) W 270 1,3 C 0,7 C
05.12.2011 15:00 4,1 C 82 % 999,8 hPa 0,0 l/m 18,4 km/h (3 Bft) W 270 1,3 C 0,1 C
05.12.2011 15:05 4,1 C 82 % 999,9 hPa 0,0 l/m 12,2 km/h (2 Bft) W-SW 247 1,3 C 1,1 C
05.12.2011 15:10 4,1 C 82 % 999,9 hPa 0,0 l/m 7,9 km/h (2 Bft) W-SW 247 1,3 C 2,1 C
05.12.2011 15:15 4,1 C 82 % 999,8 hPa 0,0 l/m 5,0 km/h (1 Bft) SW 225 1,3 C 3,1 C
05.12.2011 15:20 3,9 C 82 % 999,8 hPa 0,0 l/m 10,4 km/h (2 Bft) W-SW 247 1,1 C 1,3 C
05.12.2011 15:25 3,9 C 82 % 999,9 hPa 0,0 l/m 9,0 km/h (2 Bft) W-SW 247 1,1 C 1,6 C
05.12.2011 15:30 3,8 C 82 % 1000,2 hPa 0,0 l/m 10,4 km/h (2 Bft) W 270 1,0 C 1,1 C
05.12.2011 15:35 3,8 C 82 % 1000,2 hPa 0,0 l/m 5,0 km/h (1 Bft) W 270 1,0 C 2,7 C
05.12.2011 15:40 3,8 C 82 % 1000,2 hPa 0,0 l/m 6,5 km/h (2 Bft) W-SW 247 1,0 C 2,2 C
05.12.2011 15:45 3,6 C 82 % 1000,3 hPa 0,0 l/m 9,7 km/h (2 Bft) W-SW 247 0,8 C 1,1 C
05.12.2011 15:50 3,6 C 83 % 1000,2 hPa 0,0 l/m 6,5 km/h (2 Bft) W-SW 247 1,0 C 1,9 C
05.12.2011 15:55 3,6 C 83 % 1000,1 hPa 0,0 l/m 6,8 km/h (2 Bft) SW 225 1,0 C 1,8 C
05.12.2011 16:00 3,5 C 83 % 1000,1 hPa 0,0 l/m 4,7 km/h (1 Bft) W-SW 247 0,9 C 2,5 C
05.12.2011 16:05 3,5 C 83 % 1000,2 hPa 0,0 l/m 11,5 km/h (2 Bft) SW 225 0,9 C 0,5 C
05.12.2011 16:10 3,5 C 83 % 1000,1 hPa 0,0 l/m 11,5 km/h (2 Bft) W-SW 247 0,9 C 0,5 C
05.12.2011 16:15 3,5 C 83 % 1000,1 hPa 0,0 l/m 6,8 km/h (2 Bft) S 180 0,9 C 1,7 C
05.12.2011 16:20 3,5 C 83 % 1000,1 hPa 0,0 l/m 7,2 km/h (2 Bft) W 270 0,9 C 1,6 C
05.12.2011 16:25 3,5 C 83 % 1000,0 hPa 0,0 l/m 10,1 km/h (2 Bft) S-SW 202 0,9 C 0,8 C
05.12.2011 16:30 3,5 C 83 % 1000,0 hPa 0,0 l/m 10,1 km/h (2 Bft) S-SW 202 0,9 C 0,8 C
05.12.2011 16:35 3,5 C 83 % 1000,1 hPa 0,0 l/m 8,3 km/h (2 Bft) S-SW 202 0,9 C 1,3 C
05.12.2011 16:40 3,4 C 82 % 1000,0 hPa 0,0 l/m 8,3 km/h (2 Bft) S-SW 202 0,6 C 1,2 C
05.12.2011 16:45 3,3 C 82 % 1000,1 hPa 0,0 l/m 10,4 km/h (2 Bft) SW 225 0,5 C 0,5 C
05.12.2011 16:50 3,3 C 83 % 1000,1 hPa 0,0 l/m 7,9 km/h (2 Bft) W-SW 247 0,7 C 1,2 C
05.12.2011 16:55 3,3 C 83 % 1000,2 hPa 0,0 l/m 7,2 km/h (2 Bft) SW 225 0,7 C 1,4 C
05.12.2011 17:00 3,4 C 83 % 1000,2 hPa 0,0 l/m 9,0 km/h (2 Bft) SW 225 0,8 C 1,0 C
05.12.2011 17:05 3,5 C 83 % 1000,1 hPa 0,0 l/m 9,7 km/h (2 Bft) S-SW 202 0,9 C 0,9 C
05.12.2011 17:10 3,5 C 82 % 1000,1 hPa 0,0 l/m 6,8 km/h (2 Bft) S 180 0,7 C 1,7 C
05.12.2011 17:15 3,5 C 82 % 1000,0 hPa 0,0 l/m 9,0 km/h (2 Bft) S 180 0,7 C 1,1 C
05.12.2011 17:20 3,5 C 82 % 1000,0 hPa 0,0 l/m 8,3 km/h (2 Bft) S-SW 202 0,7 C 1,3 C
05.12.2011 17:25 3,5 C 82 % 999,8 hPa 0,0 l/m 5,8 km/h (2 Bft) S-SW 202 0,7 C 2,1 C
05.12.2011 17:30 3,5 C 82 % 999,9 hPa 0,0 l/m 11,9 km/h (2 Bft) SW 225 0,7 C 0,5 C
05.12.2011 17:35 3,5 C 82 % 999,9 hPa 0,0 l/m 9,4 km/h (2 Bft) S-SW 202 0,7 C 1,0 C
05.12.2011 17:40 3,6 C 82 % 999,9 hPa 0,0 l/m 19,8 km/h (3 Bft) SW 225 0,8 C -0,7 C
05.12.2011 17:45 3,8 C 82 % 999,9 hPa 0,0 l/m 13,0 km/h (3 Bft) S 180 1,0 C 0,6 C
05.12.2011 17:50 3,9 C 82 % 1000,0 hPa 0,0 l/m 14,0 km/h (3 Bft) S 180 1,1 C 0,6 C
05.12.2011 17:55 3,9 C 82 % 1000,0 hPa 0,0 l/m 12,6 km/h (3 Bft) S-SW 202 1,1 C 0,8 C
05.12.2011 18:00 4,1 C 81 % 999,8 hPa 0,0 l/m 7,6 km/h (2 Bft) W 270 1,1 C 2,2 C
05.12.2011 18:05 4,2 C 81 % 999,8 hPa 0,0 l/m 15,5 km/h (3 Bft) S-SW 202 1,2 C 0,7 C
05.12.2011 18:10 4,3 C 81 % 1000,2 hPa 0,0 l/m 42,8 km/h (6 Bft) W-SW 247 1,3 C -1,8 C
05.12.2011 18:15 4,2 C 81 % 1000,7 hPa 0,5 l/m 38,9 km/h (6 Bft) W-SW 247 1,2 C -1,7 C
05.12.2011 18:20 3,8 C 82 % 1000,7 hPa 0,5 l/m 29,5 km/h (5 Bft) W-SW 247 1,0 C -1,5 C
05.12.2011 18:25 3,6 C 83 % 1000,5 hPa 0,0 l/m 13,7 km/h (3 Bft) W 270 1,0 C 0,2 C
05.12.2011 18:30 3,3 C 83 % 1000,5 hPa 0,0 l/m 10,4 km/h (2 Bft) W 270 0,7 C 0,5 C
05.12.2011 18:35 3,1 C 83 % 1000,6 hPa 0,0 l/m 18,7 km/h (3 Bft) W-SW 247 0,5 C -1,2 C
05.12.2011 18:40 3,0 C 84 % 1000,4 hPa 0,0 l/m 18,7 km/h (3 Bft) W 270 0,6 C -1,3 C
05.12.2011 18:45 2,9 C 84 % 1000,3 hPa 0,0 l/m 19,4 km/h (3 Bft) W-SW 247 0,5 C -1,5 C
05.12.2011 18:50 2,8 C 84 % 1000,2 hPa 0,0 l/m 7,2 km/h (2 Bft) W-SW 247 0,4 C 0,8 C
05.12.2011 18:55 2,8 C 84 % 1000,3 hPa 0,0 l/m 13,3 km/h (3 Bft) W 270 0,4 C -0,7 C
05.12.2011 19:00 2,7 C 85 % 1000,3 hPa 0,0 l/m 11,5 km/h (2 Bft) S-SW 202 0,4 C -0,4 C
05.12.2011 19:05 2,6 C 85 % 1000,2 hPa 0,0 l/m 15,8 km/h (3 Bft) SW 225 0,3 C -1,3 C
05.12.2011 19:10 2,6 C 85 % 1000,2 hPa 0,0 l/m 6,8 km/h (2 Bft) W-SW 247 0,3 C 0,7 C
05.12.2011 19:15 2,5 C 85 % 1000,2 hPa 0,0 l/m 10,1 km/h (2 Bft) SW 225 0,2 C -0,4 C
05.12.2011 19:20 2,6 C 86 % 1000,2 hPa 0,0 l/m 14,0 km/h (3 Bft) S-SW 202 0,5 C -1,0 C
05.12.2011 19:25 2,8 C 86 % 1000,2 hPa 0,0 l/m 12,2 km/h (2 Bft) S-SW 202 0,7 C -0,4 C
05.12.2011 19:30 2,9 C 86 % 1000,2 hPa 0,0 l/m 11,9 km/h (2 Bft) SW 225 0,8 C -0,3 C
05.12.2011 19:35 2,9 C 86 % 1000,2 hPa 0,0 l/m 25,6 km/h (4 Bft) W 270 0,8 C -2,2 C
05.12.2011 19:40 3,0 C 86 % 1000,1 hPa 0,0 l/m 18,0 km/h (3 Bft) W-SW 247 0,9 C -1,2 C
05.12.2011 19:45 3,1 C 86 % 1000,2 hPa 0,0 l/m 5,8 km/h (2 Bft) SW 225 1,0 C 1,6 C
05.12.2011 19:50 3,1 C 86 % 1000,1 hPa 0,0 l/m 9,7 km/h (2 Bft) W-SW 247 1,0 C 0,5 C
05.12.2011 19:55 3,2 C 86 % 1000,2 hPa 0,0 l/m 10,1 km/h (2 Bft) W 270 1,1 C 0,5 C
05.12.2011 20:00 3,3 C 86 % 1000,3 hPa 0,0 l/m 16,9 km/h (3 Bft) S 180 1,2 C -0,6 C
05.12.2011 20:05 3,3 C 86 % 1000,3 hPa 0,0 l/m 13,3 km/h (3 Bft) W-SW 247 1,2 C -0,1 C
05.12.2011 20:10 3,4 C 85 % 1000,3 hPa 0,0 l/m 9,7 km/h (2 Bft) W 270 1,1 C 0,8 C
05.12.2011 20:15 3,4 C 85 % 1000,3 hPa 0,0 l/m 8,3 km/h (2 Bft) W-SW 247 1,1 C 1,2 C
05.12.2011 20:20 3,5 C 85 % 1000,2 hPa 0,0 l/m 13,0 km/h (3 Bft) W 270 1,2 C 0,2 C
05.12.2011 20:25 3,5 C 85 % 1000,2 hPa 0,0 l/m 14,8 km/h (3 Bft) W-SW 247 1,2 C -0,1 C
05.12.2011 20:30 3,5 C 84 % 1000,1 hPa 0,0 l/m 13,3 km/h (3 Bft) SW 225 1,1 C 0,2 C
05.12.2011 20:35 3,6 C 84 % 1000,2 hPa 0,0 l/m 12,6 km/h (3 Bft) W 270 1,2 C 0,4 C
05.12.2011 20:40 3,6 C 84 % 1000,2 hPa 0,0 l/m 15,1 km/h (3 Bft) S 180 1,2 C 0,0 C
05.12.2011 20:45 3,6 C 84 % 999,9 hPa 0,0 l/m 11,9 km/h (2 Bft) S 180 1,2 C 0,6 C
05.12.2011 20:50 3,8 C 83 % 1000,1 hPa 0,0 l/m 16,6 km/h (3 Bft) W 270 1,2 C 0,0 C
05.12.2011 20:55 3,8 C 83 % 1000,1 hPa 0,0 l/m 12,6 km/h (3 Bft) S-SW 202 1,2 C 0,7 C
05.12.2011 21:00 3,8 C 83 % 1000,2 hPa 0,0 l/m 25,6 km/h (4 Bft) SW 225 1,2 C -1,1 C
05.12.2011 21:05 3,8 C 83 % 1000,4 hPa 0,0 l/m 18,7 km/h (3 Bft) SW 225 1,2 C -0,3 C
05.12.2011 21:10 3,9 C 83 % 1000,4 hPa 0,0 l/m 18,0 km/h (3 Bft) SW 225 1,3 C -0,1 C
05.12.2011 21:15 3,9 C 83 % 1000,4 hPa 0,0 l/m 14,8 km/h (3 Bft) W-SW 247 1,3 C 0,4 C
05.12.2011 21:20 3,9 C 83 % 1000,4 hPa 0,0 l/m 23,8 km/h (4 Bft) W-SW 247 1,3 C -0,8 C
05.12.2011 21:25 3,9 C 82 % 1000,4 hPa 0,0 l/m 18,4 km/h (3 Bft) W-SW 247 1,1 C -0,1 C
05.12.2011 21:30 3,9 C 82 % 1000,4 hPa 0,0 l/m 10,4 km/h (2 Bft) W-SW 247 1,1 C 1,3 C
05.12.2011 21:35 4,0 C 82 % 1000,4 hPa 0,0 l/m 24,1 km/h (4 Bft) W-SW 247 1,2 C -0,7 C
05.12.2011 21:40 4,0 C 82 % 1000,3 hPa 0,0 l/m 20,9 km/h (4 Bft) S-SW 202 1,2 C -0,3 C
05.12.2011 21:45 3,9 C 82 % 1000,1 hPa 0,0 l/m 18,4 km/h (3 Bft) W 270 1,1 C -0,1 C
05.12.2011 21:50 3,9 C 82 % 1000,1 hPa 0,0 l/m 11,5 km/h (2 Bft) S-SO 157 1,1 C 1,0 C
05.12.2011 21:55 3,9 C 82 % 1000,1 hPa 0,0 l/m 9,7 km/h (2 Bft) S-SW 202 1,1 C 1,4 C
05.12.2011 22:00 3,9 C 82 % 1000,3 hPa 0,0 l/m 17,3 km/h (3 Bft) W-SW 247 1,1 C 0,0 C
05.12.2011 22:05 3,9 C 82 % 1000,2 hPa 0,0 l/m 7,2 km/h (2 Bft) W-SW 247 1,1 C 2,1 C
05.12.2011 22:10 3,9 C 82 % 1000,4 hPa 0,0 l/m 14,4 km/h (3 Bft) W 270 1,1 C 0,5 C
05.12.2011 22:15 3,9 C 82 % 1000,1 hPa 0,0 l/m 13,7 km/h (3 Bft) W 270 1,1 C 0,6 C
05.12.2011 22:20 3,9 C 82 % 1000,1 hPa 0,0 l/m 26,6 km/h (4 Bft) W 270 1,1 C -1,1 C
05.12.2011 22:25 3,9 C 82 % 1000,1 hPa 0,0 l/m 18,0 km/h (3 Bft) SW 225 1,1 C -0,1 C
05.12.2011 22:30 3,9 C 81 % 1000,1 hPa 0,0 l/m 20,2 km/h (4 Bft) SW 225 0,9 C -0,3 C
05.12.2011 22:35 3,9 C 81 % 1000,1 hPa 0,0 l/m 16,6 km/h (3 Bft) W-SW 247 0,9 C 0,1 C
05.12.2011 22:40 3,9 C 81 % 1000,2 hPa 0,0 l/m 12,2 km/h (2 Bft) SW 225 0,9 C 0,9 C
05.12.2011 22:45 3,9 C 81 % 1000,3 hPa 0,0 l/m 11,5 km/h (2 Bft) W-SW 247 0,9 C 1,0 C
05.12.2011 22:50 3,9 C 81 % 1000,1 hPa 0,0 l/m 11,2 km/h (2 Bft) W 270 0,9 C 1,1 C
05.12.2011 22:55 4,1 C 81 % 1000,1 hPa 0,0 l/m 8,3 km/h (2 Bft) SW 225 1,1 C 2,0 C
05.12.2011 23:00 4,1 C 81 % 999,9 hPa 0,0 l/m 27,0 km/h (4 Bft) W-SW 247 1,1 C -0,8 C
05.12.2011 23:05 4,1 C 81 % 1000,1 hPa 0,0 l/m 27,7 km/h (4 Bft) W 270 1,1 C -0,9 C
05.12.2011 23:10 4,1 C 81 % 1000,2 hPa 0,0 l/m 18,7 km/h (3 Bft) SW 225 1,1 C 0,1 C
05.12.2011 23:15 4,1 C 80 % 1000,2 hPa 0,0 l/m 20,9 km/h (4 Bft) W-SW 247 1,0 C -0,2 C
05.12.2011 23:20 4,2 C 80 % 1000,4 hPa 0,0 l/m 22,3 km/h (4 Bft) W-SW 247 1,1 C -0,2 C
05.12.2011 23:25 4,2 C 80 % 1000,3 hPa 0,0 l/m 30,6 km/h (5 Bft) W-SW 247 1,1 C -1,0 C
05.12.2011 23:30 4,2 C 80 % 1000,4 hPa 0,0 l/m 22,0 km/h (4 Bft) W-SW 247 1,1 C -0,2 C
05.12.2011 23:35 4,2 C 80 % 1000,4 hPa 0,0 l/m 11,5 km/h (2 Bft) W-SW 247 1,1 C 1,4 C
05.12.2011 23:40 4,2 C 80 % 1000,4 hPa 0,0 l/m 12,2 km/h (2 Bft) W-SW 247 1,1 C 1,2 C
05.12.2011 23:45 4,1 C 80 % 1000,5 hPa 0,0 l/m 20,9 km/h (4 Bft) W 270 1,0 C -0,2 C
05.12.2011 23:50 4,1 C 81 % 1000,2 hPa 0,0 l/m 24,1 km/h (4 Bft) W 270 1,1 C -0,5 C
05.12.2011 23:55 4,1 C 81 % 1000,2 hPa 0,0 l/m 9,7 km/h (2 Bft) SW 225 1,1 C 1,7 C
_ Min-Zeit 19:15 12:35 02:55 - 04:40 - - 19:15 19:35
Minimum _ 2,5 C 78 % 989,5 hPa - 0,0 km/h (0 Bft) - - 0,2 C -2,2 C
_ Max-Zeit 00:45 06:05 18:15 18:15 18:10 - - 00:20 01:15
Maximum _ 6,2 C 87 % 1000,7 hPa 0,5 l/m 42,8 km/h
W-SW (6 Bft)
- - 3,6 C 6,1 C
Durchschnitt _ 4,4 C 83 % 996,4 hPa #1,0 l/m 12,7 km/h (3 Bft) W-SW - 1,8 C 1,6 C
(c) by David Heller